createdAt,value
2023-02-17T07:23:58.360Z,89.61
2023-02-17T07:26:28.039Z,87.48
2023-02-17T07:28:57.589Z,85.97
2023-02-17T07:31:27.112Z,87.92
2023-02-17T07:33:56.599Z,89.16
2023-02-17T07:36:26.152Z,84.49
2023-02-17T07:38:55.740Z,85.32
2023-02-17T07:41:28.625Z,87.12
2023-02-17T07:43:59.390Z,89.03
2023-02-17T07:46:29.305Z,88.37
2023-02-17T07:48:59.486Z,90.34
2023-02-17T07:51:29.219Z,89.91
2023-02-17T07:53:58.686Z,92.20
2023-02-17T07:56:30.136Z,90.34
2023-02-17T07:58:59.582Z,92.79
2023-02-17T08:01:29.218Z,92.87
2023-02-17T08:03:58.776Z,94.70
2023-02-17T08:06:29.022Z,95.35
2023-02-17T08:09:22.301Z,95.27
2023-02-17T08:12:10.545Z,94.87
2023-02-17T08:14:40.214Z,94.60
2023-02-17T08:17:09.759Z,99.58
2023-02-17T08:19:48.109Z,99.04
2023-02-17T08:22:19.589Z,96.25
2023-02-17T08:24:49.481Z,95.76
2023-02-17T08:27:21.424Z,92.42
2023-02-17T08:29:51.194Z,93.86
2023-02-17T08:32:20.696Z,92.99
2023-02-17T08:34:50.730Z,92.02
2023-02-17T08:37:20.314Z,89.19
2023-02-17T08:39:49.792Z,92.81
2023-02-17T08:42:20.690Z,88.29
2023-02-17T08:44:50.181Z,92.46
2023-02-17T08:47:19.700Z,90.01
2023-02-17T08:49:49.164Z,89.63
2023-02-17T08:52:18.849Z,96.32
2023-02-17T08:54:49.951Z,100.00
2023-02-17T08:57:22.392Z,100.00
2023-02-17T08:59:51.873Z,100.00
2023-02-17T09:02:22.190Z,100.00
2023-02-17T09:04:51.745Z,100.00
2023-02-17T09:07:22.523Z,100.00
2023-02-17T09:09:55.585Z,100.00
2023-02-17T09:12:26.480Z,100.00
2023-02-17T09:14:55.960Z,100.00
2023-02-17T09:17:25.644Z,100.00
2023-02-17T09:19:55.684Z,100.00
2023-02-17T09:22:32.036Z,100.00
2023-02-17T09:25:01.920Z,100.00
2023-02-17T09:27:33.579Z,100.00
2023-02-17T09:30:03.370Z,100.00
2023-02-17T09:32:33.032Z,100.00
2023-02-17T09:35:05.969Z,100.00
2023-02-17T09:37:35.439Z,100.00
2023-02-17T09:40:07.436Z,100.00
2023-02-17T09:42:41.870Z,100.00
2023-02-17T09:45:32.354Z,100.00
2023-02-17T09:48:07.689Z,99.30
2023-02-17T09:50:46.843Z,94.29
2023-02-17T09:53:31.988Z,95.45
2023-02-17T09:56:07.601Z,93.14
2023-02-17T09:58:44.739Z,91.27
2023-02-17T10:01:21.701Z,89.95
2023-02-17T10:03:57.518Z,87.86
2023-02-17T10:06:33.479Z,89.47
2023-02-17T10:09:12.916Z,89.72
2023-02-17T10:11:49.738Z,87.89
2023-02-17T10:14:29.281Z,89.32
2023-02-17T10:17:05.096Z,89.20
2023-02-17T10:19:42.436Z,87.64
2023-02-17T10:22:19.053Z,85.95
2023-02-17T10:24:48.711Z,82.54
2023-02-17T10:27:38.661Z,81.96
2023-02-17T10:30:32.540Z,81.53
2023-02-17T10:33:08.183Z,80.89
2023-02-17T10:35:53.373Z,78.37
2023-02-17T10:38:45.304Z,79.40
2023-02-17T10:41:22.357Z,78.30
2023-02-17T10:43:52.805Z,77.97
2023-02-17T10:46:31.178Z,79.63
2023-02-17T10:49:01.645Z,76.23
2023-02-17T10:51:32.996Z,75.15
2023-02-17T10:54:14.103Z,74.31
2023-02-17T10:56:49.464Z,76.80
2023-02-17T10:59:26.633Z,73.88
2023-02-17T11:02:13.964Z,74.77
2023-02-17T11:04:44.826Z,74.29
2023-02-17T11:07:18.449Z,74.76
2023-02-17T11:09:52.287Z,74.93
2023-02-17T11:12:28.854Z,76.28
2023-02-17T11:14:58.763Z,75.29
2023-02-17T11:17:37.244Z,74.54
2023-02-17T11:20:30.053Z,75.10
2023-02-17T11:23:25.617Z,74.83
2023-02-17T11:26:05.126Z,75.63
2023-02-17T11:28:34.636Z,75.35
2023-02-17T11:31:04.900Z,76.00
2023-02-17T11:33:40.008Z,75.05
2023-02-17T11:36:24.092Z,75.49
2023-02-17T11:38:53.609Z,77.49
2023-02-17T11:41:24.342Z,78.19
2023-02-17T11:43:58.509Z,75.55
2023-02-17T11:46:39.812Z,75.21
2023-02-17T11:49:58.451Z,76.96
2023-02-17T11:52:51.149Z,76.44
2023-02-17T11:55:30.705Z,76.95
2023-02-17T11:58:21.798Z,78.33
2023-02-17T12:01:04.950Z,77.36
2023-02-17T12:04:23.929Z,77.45
2023-02-17T12:07:23.630Z,76.71
2023-02-17T12:10:05.555Z,77.51
2023-02-17T12:12:59.176Z,78.51
2023-02-17T12:15:54.306Z,79.69
2023-02-17T12:18:50.680Z,79.75
2023-02-17T12:21:37.200Z,79.73
2023-02-17T12:24:40.450Z,79.76
2023-02-17T12:27:30.691Z,79.48
2023-02-17T12:30:25.002Z,80.39
2023-02-17T12:33:48.035Z,86.63
2023-02-17T12:36:20.625Z,84.82
2023-02-17T12:38:56.066Z,87.22
2023-02-17T12:41:34.559Z,82.95
2023-02-17T12:44:11.143Z,83.91
2023-02-17T12:46:46.208Z,84.43
2023-02-17T12:49:22.650Z,84.46
2023-02-17T12:51:57.174Z,85.63
2023-02-17T12:54:35.702Z,87.56
2023-02-17T12:57:15.693Z,89.11
2023-02-17T12:59:47.552Z,89.96
2023-02-17T13:02:21.042Z,90.30
2023-02-17T13:04:54.415Z,92.38
2023-02-17T13:07:47.770Z,90.06
2023-02-17T13:10:34.947Z,90.96
2023-02-17T13:13:12.296Z,90.60
2023-02-17T13:15:44.574Z,90.69
2023-02-17T13:18:29.203Z,93.66
2023-02-17T13:21:02.401Z,91.36
2023-02-17T13:23:42.275Z,90.73
2023-02-17T13:26:36.403Z,93.64
2023-02-17T13:29:34.546Z,92.78
2023-02-17T13:32:08.871Z,90.93
2023-02-17T13:34:42.385Z,89.64
2023-02-17T13:37:28.241Z,91.11
2023-02-17T13:39:57.853Z,88.41
2023-02-17T13:42:41.763Z,88.62
2023-02-17T13:45:25.418Z,91.93
2023-02-17T13:47:58.369Z,91.65
2023-02-17T13:50:35.625Z,89.76
2023-02-17T13:53:28.590Z,89.76
2023-02-17T13:56:02.396Z,89.80
2023-02-17T13:58:34.922Z,91.07
2023-02-17T14:01:14.028Z,91.81
2023-02-17T14:03:50.596Z,94.03
2023-02-17T14:06:28.704Z,94.28
2023-02-17T14:08:58.737Z,95.22
2023-02-17T14:11:32.909Z,96.22
2023-02-17T14:14:03.636Z,96.42
2023-02-17T14:16:38.133Z,97.86
2023-02-17T14:19:12.285Z,98.60
2023-02-17T14:21:58.945Z,97.99
2023-02-17T14:25:01.334Z,98.24
2023-02-17T14:27:42.176Z,98.30
2023-02-17T14:30:28.441Z,100.00
2023-02-17T14:33:09.545Z,100.00
2023-02-17T14:35:39.470Z,100.00
2023-02-17T14:38:21.784Z,97.89
2023-02-17T14:40:53.380Z,100.00
2023-02-17T14:43:24.158Z,98.53
2023-02-17T14:45:53.708Z,99.09
2023-02-17T14:48:27.392Z,98.34
2023-02-17T14:50:58.342Z,97.55
2023-02-17T14:53:32.616Z,96.99
2023-02-17T14:56:08.836Z,96.42
2023-02-17T14:58:38.805Z,96.49
2023-02-17T15:01:10.517Z,99.05
2023-02-17T15:03:41.426Z,96.83
2023-02-17T15:06:17.645Z,97.32
2023-02-17T15:08:50.375Z,97.90
2023-02-17T15:11:48.964Z,98.57
2023-02-17T15:14:21.577Z,98.85
2023-02-17T15:16:51.151Z,98.60
2023-02-17T15:19:21.962Z,97.59
2023-02-17T15:21:53.334Z,99.16
2023-02-17T15:24:31.142Z,98.32
2023-02-17T15:27:02.684Z,99.34
2023-02-17T15:29:32.560Z,100.00
2023-02-17T15:32:05.952Z,100.00
2023-02-17T15:34:37.263Z,100.00
2023-02-17T15:37:06.696Z,100.00
2023-02-17T15:39:36.192Z,100.00
2023-02-17T15:42:13.570Z,100.00
2023-02-17T15:44:46.877Z,100.00
2023-02-17T15:47:20.432Z,100.00
2023-02-17T15:49:51.214Z,100.00
2023-02-17T15:52:20.576Z,100.00
2023-02-17T15:54:50.034Z,100.00
2023-02-17T15:57:25.583Z,100.00
2023-02-17T15:59:55.260Z,100.00
2023-02-17T16:02:26.867Z,100.00
2023-02-17T16:04:57.729Z,100.00
2023-02-17T16:07:27.162Z,100.00
2023-02-17T16:09:56.624Z,100.00
2023-02-17T16:12:27.771Z,100.00
2023-02-17T16:14:58.665Z,100.00
2023-02-17T16:17:28.749Z,100.00
2023-02-17T16:19:59.524Z,100.00
2023-02-17T16:22:30.111Z,100.00
2023-02-17T16:24:59.547Z,100.00
2023-02-17T16:27:28.980Z,100.00
2023-02-17T16:29:58.554Z,100.00
2023-02-17T16:32:28.248Z,100.00
2023-02-17T16:34:59.061Z,100.00
2023-02-17T16:37:28.471Z,100.00
2023-02-17T16:39:58.427Z,100.00
2023-02-17T16:42:28.104Z,100.00
2023-02-17T16:44:57.554Z,100.00
2023-02-17T16:47:27.038Z,100.00
2023-02-17T16:49:56.503Z,100.00
2023-02-17T16:52:28.857Z,100.00
2023-02-17T16:55:01.656Z,100.00
2023-02-17T16:57:31.327Z,100.00
2023-02-17T17:00:00.970Z,100.00
2023-02-17T17:02:30.456Z,100.00
2023-02-17T17:05:00.410Z,100.00
2023-02-17T17:07:33.438Z,100.00
2023-02-17T17:10:17.747Z,100.00
2023-02-17T17:12:47.905Z,100.00
2023-02-17T17:15:19.050Z,100.00
2023-02-17T17:17:54.232Z,100.00
2023-02-17T17:22:29.439Z,100.00
2023-02-17T17:25:00.174Z,100.00
2023-02-17T17:27:29.618Z,100.00
2023-02-17T17:29:59.120Z,100.00
2023-02-17T17:32:28.698Z,100.00
2023-02-17T17:34:58.130Z,100.00
2023-02-17T17:37:27.652Z,100.00
2023-02-17T17:39:57.106Z,100.00
2023-02-17T17:42:27.834Z,100.00
2023-02-17T17:44:57.276Z,100.00
2023-02-17T17:47:30.115Z,100.00
2023-02-17T17:49:59.725Z,100.00
2023-02-17T17:52:29.080Z,100.00
2023-02-17T17:54:58.446Z,100.00
2023-02-17T17:57:29.237Z,100.00
2023-02-17T17:59:59.067Z,100.00
2023-02-17T18:02:28.640Z,100.00
2023-02-17T18:04:58.124Z,100.00
2023-02-17T18:07:28.186Z,100.00
2023-02-17T18:09:58.221Z,100.00
2023-02-17T18:12:29.626Z,100.00
2023-02-17T18:15:02.606Z,100.00
2023-02-17T18:17:35.147Z,100.00
2023-02-17T18:20:05.887Z,100.00
2023-02-17T18:22:35.299Z,100.00
2023-02-17T18:25:05.211Z,100.00
2023-02-17T18:27:42.539Z,100.00
2023-02-17T18:30:15.249Z,100.00
2023-02-17T18:32:45.412Z,100.00
2023-02-17T18:35:15.967Z,100.00
2023-02-17T18:37:46.219Z,100.00
2023-02-17T18:40:20.099Z,100.00
2023-02-17T18:42:50.932Z,100.00
2023-02-17T18:45:20.600Z,100.00
2023-02-17T18:47:50.256Z,100.00
2023-02-17T18:50:20.175Z,100.00
2023-02-17T18:54:10.676Z,100.00
2023-02-17T18:56:40.433Z,100.00
2023-02-17T18:59:11.296Z,100.00
2023-02-17T19:01:41.506Z,100.00
2023-02-17T19:04:12.898Z,100.00
2023-02-17T19:06:42.788Z,100.00
2023-02-17T19:09:12.313Z,100.00
2023-02-17T19:11:41.729Z,100.00
2023-02-17T19:14:12.543Z,100.00
2023-02-17T19:16:42.035Z,100.00
2023-02-17T19:19:11.472Z,100.00
2023-02-17T19:21:40.907Z,100.00
2023-02-17T19:24:10.667Z,100.00
2023-02-17T19:26:40.417Z,100.00
2023-02-17T19:29:10.132Z,100.00
2023-02-17T19:31:41.013Z,100.00
2023-02-17T19:34:10.432Z,100.00
2023-02-17T19:36:39.831Z,100.00
2023-02-17T19:39:09.231Z,100.00
2023-02-17T19:41:39.181Z,100.00
2023-02-17T19:44:09.839Z,100.00
2023-02-17T19:46:41.202Z,100.00
2023-02-17T19:49:10.719Z,100.00
2023-02-17T19:51:40.219Z,100.00
2023-02-17T19:54:09.708Z,100.00
2023-02-17T19:56:39.492Z,100.00
2023-02-17T19:59:09.062Z,100.00
2023-02-17T20:01:42.933Z,100.00
2023-02-17T20:04:12.817Z,100.00
2023-02-17T20:06:47.377Z,100.00
2023-02-17T20:09:46.020Z,100.00
2023-02-17T20:12:15.494Z,100.00
2023-02-17T20:14:45.716Z,100.00
2023-02-17T20:17:17.066Z,100.00
2023-02-17T20:19:46.561Z,100.00
2023-02-17T20:22:16.034Z,100.00
2023-02-17T20:24:45.527Z,100.00
2023-02-17T20:27:15.086Z,100.00
2023-02-17T20:29:44.494Z,100.00
2023-02-17T20:32:14.016Z,100.00
2023-02-17T20:34:44.991Z,100.00
2023-02-17T20:37:14.438Z,100.00
2023-02-17T20:39:44.161Z,100.00
2023-02-17T20:42:13.742Z,100.00
2023-02-17T20:44:44.595Z,100.00
2023-02-17T20:47:14.188Z,100.00
2023-02-17T20:49:45.151Z,100.00
2023-02-17T20:52:14.631Z,100.00
2023-02-17T20:54:44.646Z,100.00
2023-02-17T20:57:16.043Z,100.00
2023-02-17T20:59:45.873Z,100.00
2023-02-17T21:02:15.418Z,100.00
2023-02-17T21:04:46.754Z,100.00
2023-02-17T21:07:16.731Z,100.00
2023-02-17T21:09:46.764Z,100.00
2023-02-17T21:12:16.216Z,100.00
2023-02-17T21:14:45.648Z,100.00
2023-02-17T21:17:15.165Z,100.00
2023-02-17T21:19:46.244Z,100.00
2023-02-17T21:22:15.657Z,100.00
2023-02-17T21:24:45.132Z,100.00
2023-02-17T21:27:14.657Z,100.00
2023-02-17T21:29:44.211Z,100.00
2023-02-17T21:32:13.848Z,100.00
2023-02-17T21:34:44.755Z,100.00
2023-02-17T21:37:14.240Z,100.00
2023-02-17T21:39:43.795Z,100.00
2023-02-17T21:42:13.414Z,100.00
2023-02-17T21:44:55.175Z,100.00
2023-02-17T21:47:24.754Z,100.00
2023-02-17T21:49:56.487Z,100.00
2023-02-17T21:52:26.036Z,100.00
2023-02-17T21:54:55.912Z,100.00
2023-02-17T21:57:25.327Z,100.00
2023-02-17T21:59:54.976Z,100.00
2023-02-17T22:02:24.483Z,100.00
2023-02-17T22:04:57.709Z,100.00
2023-02-17T22:07:26.958Z,100.00
2023-02-17T22:09:56.382Z,100.00
2023-02-17T22:12:25.956Z,100.00
2023-02-17T22:14:55.346Z,100.00
2023-02-17T22:17:24.812Z,100.00
2023-02-17T22:19:54.198Z,100.00
2023-02-17T22:22:24.994Z,100.00
2023-02-17T22:24:54.475Z,100.00
2023-02-17T22:27:23.979Z,100.00
2023-02-17T22:29:53.395Z,100.00
2023-02-17T22:32:22.923Z,100.00
2023-02-17T22:34:52.331Z,100.00
2023-02-17T22:37:21.739Z,100.00
2023-02-17T22:39:55.647Z,100.00
2023-02-17T22:42:25.842Z,100.00
2023-02-17T22:44:55.244Z,100.00
2023-02-17T22:47:24.668Z,100.00
2023-02-17T22:49:54.119Z,100.00
2023-02-17T22:52:23.569Z,100.00
2023-02-17T22:54:54.359Z,100.00
2023-02-17T22:57:23.855Z,100.00
2023-02-17T22:59:53.320Z,100.00
2023-02-17T23:02:22.775Z,100.00
2023-02-17T23:04:52.701Z,100.00
2023-02-17T23:07:23.524Z,100.00
2023-02-17T23:09:54.304Z,100.00
2023-02-17T23:12:25.089Z,100.00
2023-02-17T23:14:54.874Z,100.00
2023-02-17T23:17:24.313Z,100.00
2023-02-17T23:19:53.731Z,100.00
2023-02-17T23:22:23.286Z,100.00
2023-02-17T23:24:54.099Z,100.00
2023-02-17T23:27:23.590Z,100.00
2023-02-17T23:29:53.096Z,100.00
2023-02-17T23:32:22.508Z,100.00
2023-02-17T23:36:09.520Z,100.00
2023-02-17T23:38:39.164Z,100.00
2023-02-17T23:41:09.939Z,100.00
2023-02-17T23:43:39.714Z,100.00
2023-02-17T23:46:09.728Z,100.00
2023-02-17T23:48:39.642Z,100.00
2023-02-17T23:51:09.228Z,100.00
2023-02-17T23:53:38.751Z,100.00
2023-02-17T23:56:15.264Z,100.00
2023-02-17T23:58:44.673Z,100.00
